Time;durP1;ratioP1;P1;durP2;ratioP2;P2;SDS_P1;SDS_P2;PMS_P1;PMS_P2;Temp;Humidity;BMP_temperature;BMP_pressure;BME280_temperature;BME280_humidity;BME280_pressure;Samples;Min_cycle;Max_cycle;Signal;HPM_P1;HPM_P2
2023/09/02 00:01:30;;;;;;;5.55;4.03;;;;;;;;;;6190355;23;20020;-85
2023/09/02 00:03:57;;;;;;;4.60;3.90;;;;;;;;;;6215229;23;20012;-84
2023/09/02 00:06:23;;;;;;;5.70;4.43;;;;;;;;;;6190112;23;20013;-85
2023/09/02 00:08:49;;;;;;;5.40;4.30;;;;;;;;;;6189839;23;20083;-85
2023/09/02 00:11:15;;;;;;;6.18;4.63;;;;;;;;;;6214633;23;20079;-84
2023/09/02 00:13:41;;;;;;;5.28;4.22;;;;;;;;;;6215000;23;20047;-85
2023/09/02 00:16:08;;;;;;;8.15;5.10;;;;;;;;;;6182672;23;20445;-85
2023/09/02 00:18:34;;;;;;;5.80;4.75;;;;;;;;;;6189433;23;20112;-85
2023/09/02 00:21:00;;;;;;;6.55;4.97;;;;;;;;;;6214852;23;20032;-85
2023/09/02 00:23:26;;;;;;;12.73;5.03;;;;;;;;;;6190208;23;20020;-84
2023/09/02 00:25:52;;;;;;;6.95;5.30;;;;;;;;;;6216369;23;20017;-85
2023/09/02 00:28:18;;;;;;;6.10;4.78;;;;;;;;;;6190013;23;20112;-84
2023/09/02 00:30:44;;;;;;;5.70;4.50;;;;;;;;;;6215851;23;20321;-84
2023/09/02 00:33:10;;;;;;;5.88;4.80;;;;;;;;;;6214767;23;20016;-85
2023/09/02 00:35:37;;;;;;;6.03;5.13;;;;;;;;;;6189836;23;20024;-84
2023/09/02 00:38:03;;;;;;;5.75;4.60;;;;;;;;;;6215102;23;20424;-84
2023/09/02 00:40:30;;;;;;;6.05;4.60;;;;;;;;;;6189573;23;20063;-85
2023/09/02 00:42:56;;;;;;;6.30;4.93;;;;;;;;;;6189713;23;20059;-84
2023/09/02 00:45:22;;;;;;;7.95;5.47;;;;;;;;;;6189730;23;20384;-85
2023/09/02 00:47:53;;;;;;;7.43;5.57;;;;;;;;;;6214891;23;20048;-84
2023/09/02 00:50:20;;;;;;;7.20;5.20;;;;;;;;;;6215238;23;20013;-85
2023/09/02 00:52:46;;;;;;;7.43;5.22;;;;;;;;;;6189827;23;20456;-85
2023/09/02 00:55:13;;;;;;;7.57;5.53;;;;;;;;;;6214716;23;20020;-85
2023/09/02 00:57:39;;;;;;;7.47;5.95;;;;;;;;;;6190290;23;20478;-85
2023/09/02 01:00:06;;;;;;;9.38;6.30;;;;;;;;;;6214813;23;20041;-85
2023/09/02 01:02:33;;;;;;;11.48;5.65;;;;;;;;;;6214770;23;20028;-86
2023/09/02 01:04:59;;;;;;;7.30;6.05;;;;;;;;;;6214568;23;20012;-85
2023/09/02 01:07:26;;;;;;;7.78;5.30;;;;;;;;;;6189950;23;20025;-85
2023/09/02 01:09:52;;;;;;;7.63;5.30;;;;;;;;;;6189313;23;20467;-85
2023/09/02 01:12:18;;;;;;;8.93;5.57;;;;;;;;;;6189513;23;20040;-85
2023/09/02 01:14:47;;;;;;;7.28;5.15;;;;;;;;;;6189642;23;20071;-87
2023/09/02 01:17:16;;;;;;;6.30;4.72;;;;;;;;;;6189108;23;20051;-85
2023/09/02 01:19:43;;;;;;;8.13;5.43;;;;;;;;;;6189244;23;20051;-85
2023/09/02 01:22:28;;;;;;;6.45;5.00;;;;;;;;;;6190147;23;20016;-86
2023/09/02 01:25:12;;;;;;;5.55;4.93;;;;;;;;;;6202484;23;20020;-85
2023/09/02 01:27:42;;;;;;;6.18;4.90;;;;;;;;;;6207810;23;20040;-85
2023/09/02 01:30:08;;;;;;;5.50;4.55;;;;;;;;;;6227804;23;20520;-85
2023/09/02 01:32:37;;;;;;;6.20;4.93;;;;;;;;;;6214713;23;20012;-85
2023/09/02 01:35:06;;;;;;;5.93;4.65;;;;;;;;;;6214826;23;20017;-84
2023/09/02 01:37:37;;;;;;;7.82;5.15;;;;;;;;;;6214444;23;20153;-84
2023/09/02 01:40:05;;;;;;;6.82;5.10;;;;;;;;;;6188960;23;20012;-84
2023/09/02 01:42:32;;;;;;;8.50;6.05;;;;;;;;;;6214435;23;20075;-85
2023/09/02 01:44:59;;;;;;;7.25;5.78;;;;;;;;;;6215909;23;20035;-84
2023/09/02 01:47:25;;;;;;;7.50;5.63;;;;;;;;;;6214162;23;20044;-84
2023/09/02 01:49:51;;;;;;;7.28;6.00;;;;;;;;;;6214711;23;20017;-84
2023/09/02 01:52:18;;;;;;;9.75;6.15;;;;;;;;;;6189042;23;20021;-85
2023/09/02 01:54:44;;;;;;;10.05;6.05;;;;;;;;;;6189412;23;20043;-84
2023/09/02 01:57:11;;;;;;;8.88;5.97;;;;;;;;;;6215449;23;20016;-84
2023/09/02 01:59:38;;;;;;;8.77;6.63;;;;;;;;;;6188970;23;20016;-85
2023/09/02 02:02:04;;;;;;;9.23;6.10;;;;;;;;;;6188922;23;20027;-85
2023/09/02 02:04:39;;;;;;;8.98;5.70;;;;;;;;;;6214508;23;20017;-84
2023/09/02 02:07:13;;;;;;;6.85;5.47;;;;;;;;;;6189382;23;20024;-85
2023/09/02 02:09:54;;;;;;;7.57;5.68;;;;;;;;;;6177414;23;20044;-84
2023/09/02 02:12:21;;;;;;;7.28;5.82;;;;;;;;;;6214113;23;20019;-85
2023/09/02 02:14:47;;;;;;;8.25;6.03;;;;;;;;;;6189060;23;20017;-85
2023/09/02 02:17:13;;;;;;;8.68;6.20;;;;;;;;;;6189242;23;20024;-84
2023/09/02 02:19:39;;;;;;;7.35;5.57;;;;;;;;;;6189381;23;20023;-85
2023/09/02 02:22:06;;;;;;;9.07;5.97;;;;;;;;;;6189301;23;20352;-84
2023/09/02 02:24:32;;;;;;;9.13;6.05;;;;;;;;;;6188600;23;20341;-84
2023/09/02 02:26:58;;;;;;;8.07;6.22;;;;;;;;;;6189058;23;20017;-84
2023/09/02 02:29:24;;;;;;;8.80;6.18;;;;;;;;;;6190772;23;20017;-85
2023/09/02 02:31:50;;;;;;;8.82;5.95;;;;;;;;;;6191070;23;20021;-85
2023/09/02 02:34:16;;;;;;;7.88;6.28;;;;;;;;;;6215163;23;20020;-85
2023/09/02 02:36:42;;;;;;;6.32;5.28;;;;;;;;;;6214908;23;20021;-84
2023/09/02 02:39:09;;;;;;;7.22;5.45;;;;;;;;;;6215758;23;20432;-84
2023/09/02 02:41:35;;;;;;;7.45;5.53;;;;;;;;;;6216087;23;20096;-84
2023/09/02 02:44:01;;;;;;;7.57;6.15;;;;;;;;;;6190815;23;20020;-85
2023/09/02 02:46:27;;;;;;;7.50;5.70;;;;;;;;;;6190338;23;20459;-84
2023/09/02 02:48:53;;;;;;;7.93;6.13;;;;;;;;;;6191029;23;20021;-84
2023/09/02 02:51:20;;;;;;;8.18;5.65;;;;;;;;;;6215536;23;20017;-84
2023/09/02 02:53:46;;;;;;;6.75;5.60;;;;;;;;;;6190385;23;20027;-84
2023/09/02 02:56:12;;;;;;;8.27;5.90;;;;;;;;;;6215548;23;20021;-84
2023/09/02 02:58:38;;;;;;;8.20;5.88;;;;;;;;;;6190649;23;20125;-85
2023/09/02 03:01:05;;;;;;;7.05;5.95;;;;;;;;;;6189310;23;20139;-84
2023/09/02 03:03:32;;;;;;;7.30;5.68;;;;;;;;;;6195892;23;20017;-84
2023/09/02 03:06:02;;;;;;;7.38;5.68;;;;;;;;;;6196662;23;20075;-84
2023/09/02 03:08:28;;;;;;;5.72;4.65;;;;;;;;;;6192321;23;20021;-84
2023/09/02 03:10:58;;;;;;;5.50;4.65;;;;;;;;;;6219113;23;20013;-84
2023/09/02 03:13:24;;;;;;;6.68;4.88;;;;;;;;;;6216990;23;20416;-84
2023/09/02 03:15:54;;;;;;;6.03;5.13;;;;;;;;;;6190817;23;20016;-84
2023/09/02 03:18:20;;;;;;;8.38;5.70;;;;;;;;;;6190967;23;20020;-84
2023/09/02 03:20:46;;;;;;;8.73;6.72;;;;;;;;;;6190682;23;20095;-84
2023/09/02 03:23:13;;;;;;;8.15;6.93;;;;;;;;;;6190950;23;20467;-86
2023/09/02 03:25:39;;;;;;;13.30;7.70;;;;;;;;;;6190632;23;20035;-85
2023/09/02 03:28:05;;;;;;;9.50;6.85;;;;;;;;;;6190434;23;20027;-85
2023/09/02 03:30:31;;;;;;;8.00;5.93;;;;;;;;;;6218557;23;20048;-85
2023/09/02 03:32:58;;;;;;;8.57;5.85;;;;;;;;;;6199014;23;20098;-84
2023/09/02 03:35:24;;;;;;;6.45;5.32;;;;;;;;;;6217271;23;20099;-85
2023/09/02 03:37:50;;;;;;;9.23;6.00;;;;;;;;;;6215981;23;20023;-85
2023/09/02 03:40:16;;;;;;;7.10;5.60;;;;;;;;;;6215232;23;20020;-84
2023/09/02 03:42:42;;;;;;;6.70;5.43;;;;;;;;;;6190580;23;20027;-84
2023/09/02 03:45:13;;;;;;;7.22;5.47;;;;;;;;;;6215323;23;20013;-85
2023/09/02 03:47:39;;;;;;;6.30;5.28;;;;;;;;;;6215827;23;20059;-85
2023/09/02 03:50:06;;;;;;;7.38;5.65;;;;;;;;;;6214701;23;20086;-85
2023/09/02 03:52:32;;;;;;;5.63;4.53;;;;;;;;;;6216757;23;20452;-85
2023/09/02 03:54:59;;;;;;;7.63;5.40;;;;;;;;;;6215055;23;20013;-85
2023/09/02 03:57:25;;;;;;;5.57;4.63;;;;;;;;;;6215230;23;20012;-84
2023/09/02 03:59:51;;;;;;;5.50;3.67;;;;;;;;;;6189982;23;20036;-84
2023/09/02 04:02:17;;;;;;;6.20;3.33;;;;;;;;;;6215006;23;20017;-84
2023/09/02 04:04:44;;;;;;;7.13;4.88;;;;;;;;;;6189303;23;20042;-84
2023/09/02 04:07:10;;;;;;;4.97;3.83;;;;;;;;;;6189923;23;20023;-84
2023/09/02 04:09:36;;;;;;;6.05;4.90;;;;;;;;;;6190096;23;20038;-84
2023/09/02 04:12:03;;;;;;;6.43;4.85;;;;;;;;;;6214314;23;20027;-84
2023/09/02 04:14:29;;;;;;;6.10;4.43;;;;;;;;;;6216452;23;20020;-85
2023/09/02 04:16:55;;;;;;;6.03;5.03;;;;;;;;;;6214438;23;20106;-85
2023/09/02 04:19:22;;;;;;;5.95;4.82;;;;;;;;;;6189873;23;20348;-84
2023/09/02 04:21:49;;;;;;;6.35;5.00;;;;;;;;;;6216036;23;20113;-84
2023/09/02 04:24:15;;;;;;;6.18;5.22;;;;;;;;;;6189631;23;20444;-84
2023/09/02 04:26:41;;;;;;;6.28;5.20;;;;;;;;;;6189639;23;20089;-86
2023/09/02 04:29:07;;;;;;;5.55;4.90;;;;;;;;;;6182449;23;20020;-84
2023/09/02 04:31:33;;;;;;;6.68;5.10;;;;;;;;;;6216233;23;20024;-84
2023/09/02 04:34:00;;;;;;;5.78;5.07;;;;;;;;;;6216232;23;20020;-84
2023/09/02 04:36:26;;;;;;;7.10;5.13;;;;;;;;;;6214755;23;20028;-85
2023/09/02 04:38:52;;;;;;;7.38;5.03;;;;;;;;;;6189710;23;20052;-84
2023/09/02 04:41:18;;;;;;;5.55;4.63;;;;;;;;;;6214678;23;20020;-84
2023/09/02 04:43:44;;;;;;;5.85;4.75;;;;;;;;;;6191124;23;20083;-84
2023/09/02 04:46:11;;;;;;;6.68;5.55;;;;;;;;;;6225110;23;20017;-84
2023/09/02 04:48:37;;;;;;;6.10;5.25;;;;;;;;;;6198856;23;20020;-84
2023/09/02 04:51:04;;;;;;;5.97;5.00;;;;;;;;;;6217088;23;20013;-84
2023/09/02 04:53:30;;;;;;;6.90;5.15;;;;;;;;;;6216426;23;20017;-84
2023/09/02 04:55:56;;;;;;;6.70;5.45;;;;;;;;;;6189022;23;20474;-84
2023/09/02 04:58:25;;;;;;;7.38;5.32;;;;;;;;;;6216058;23;20203;-84
2023/09/02 05:00:54;;;;;;;6.93;5.63;;;;;;;;;;6214363;23;20020;-84
2023/09/02 05:03:20;;;;;;;8.02;5.90;;;;;;;;;;6188980;23;20401;-84
2023/09/02 05:05:46;;;;;;;7.97;5.88;;;;;;;;;;6189246;23;20070;-84
2023/09/02 05:08:13;;;;;;;6.95;5.40;;;;;;;;;;6214454;23;20016;-84
2023/09/02 05:10:39;;;;;;;9.43;5.85;;;;;;;;;;6189674;23;20024;-84
2023/09/02 05:13:05;;;;;;;8.98;6.25;;;;;;;;;;6215796;23;20013;-85
2023/09/02 05:15:31;;;;;;;7.10;5.65;;;;;;;;;;6188832;23;20020;-84
2023/09/02 05:17:58;;;;;;;7.05;5.68;;;;;;;;;;6213922;23;20099;-84
2023/09/02 05:20:24;;;;;;;8.82;5.93;;;;;;;;;;6188656;23;20013;-84
2023/09/02 05:22:50;;;;;;;6.78;5.45;;;;;;;;;;6213748;23;20103;-84
2023/09/02 05:25:16;;;;;;;7.70;5.15;;;;;;;;;;6188949;23;20514;-84
2023/09/02 05:27:44;;;;;;;6.10;5.10;;;;;;;;;;6189094;23;20372;-84
2023/09/02 05:30:10;;;;;;;6.18;5.45;;;;;;;;;;6189287;23;20036;-84
2023/09/02 05:32:36;;;;;;;7.55;6.18;;;;;;;;;;6188957;23;20021;-84
2023/09/02 05:35:02;;;;;;;8.43;5.47;;;;;;;;;;6189330;23;20020;-85
2023/09/02 05:37:31;;;;;;;8.32;6.05;;;;;;;;;;6218239;23;20031;-85
2023/09/02 05:39:57;;;;;;;9.27;6.70;;;;;;;;;;6221489;23;20097;-84
2023/09/02 05:42:23;;;;;;;9.43;5.88;;;;;;;;;;6190162;23;20396;-84
2023/09/02 05:44:49;;;;;;;8.55;6.25;;;;;;;;;;6189121;23;20444;-84
2023/09/02 05:47:15;;;;;;;8.50;6.25;;;;;;;;;;6188976;23;20023;-85
2023/09/02 05:49:41;;;;;;;9.32;6.00;;;;;;;;;;6213551;23;20502;-84
2023/09/02 05:52:07;;;;;;;8.15;5.85;;;;;;;;;;6214932;23;20052;-84
2023/09/02 05:54:33;;;;;;;8.68;6.45;;;;;;;;;;6192155;23;20029;-85
2023/09/02 05:57:00;;;;;;;8.57;5.85;;;;;;;;;;6190580;23;20028;-85
2023/09/02 05:59:26;;;;;;;9.55;6.68;;;;;;;;;;6214303;23;20017;-85
2023/09/02 06:01:52;;;;;;;11.07;7.70;;;;;;;;;;6216036;23;20039;-85
2023/09/02 06:04:18;;;;;;;10.77;7.10;;;;;;;;;;6215977;23;20013;-85
2023/09/02 06:06:47;;;;;;;12.45;7.38;;;;;;;;;;6215181;23;20012;-85
2023/09/02 06:09:15;;;;;;;11.30;6.60;;;;;;;;;;6216448;23;20471;-85
2023/09/02 06:11:42;;;;;;;9.32;6.63;;;;;;;;;;6192854;23;20020;-85
2023/09/02 06:14:08;;;;;;;8.48;6.57;;;;;;;;;;6218407;23;20375;-85
2023/09/02 06:16:34;;;;;;;9.13;7.07;;;;;;;;;;6191536;23;20016;-85
2023/09/02 06:19:00;;;;;;;12.65;8.57;;;;;;;;;;6216001;23;20016;-86
2023/09/02 06:21:26;;;;;;;10.55;7.68;;;;;;;;;;6190462;23;20540;-86
2023/09/02 06:23:52;;;;;;;12.35;8.75;;;;;;;;;;6190582;23;20016;-86
2023/09/02 06:26:21;;;;;;;14.55;8.52;;;;;;;;;;6189841;23;20444;-86
2023/09/02 06:28:47;;;;;;;11.82;7.95;;;;;;;;;;6190334;23;20024;-86
2023/09/02 06:31:13;;;;;;;13.70;8.13;;;;;;;;;;6218586;23;20028;-86
2023/09/02 06:33:39;;;;;;;13.15;8.10;;;;;;;;;;6194713;23;20024;-86
2023/09/02 06:36:12;;;;;;;11.35;7.72;;;;;;;;;;6221572;23;20028;-86
2023/09/02 06:38:38;;;;;;;9.07;7.50;;;;;;;;;;6191208;23;20020;-86
2023/09/02 06:41:11;;;;;;;8.50;7.07;;;;;;;;;;6216988;23;20581;-86
2023/09/02 06:43:37;;;;;;;8.73;6.53;;;;;;;;;;6216874;23;20075;-86
2023/09/02 06:46:14;;;;;;;8.35;6.82;;;;;;;;;;6190059;23;20353;-86
2023/09/02 06:48:40;;;;;;;10.02;6.50;;;;;;;;;;6216750;23;20012;-86
2023/09/02 06:51:07;;;;;;;7.75;6.03;;;;;;;;;;6216576;23;20020;-86
2023/09/02 06:53:33;;;;;;;9.05;7.05;;;;;;;;;;6189910;23;20017;-86
2023/09/02 06:55:59;;;;;;;9.27;6.65;;;;;;;;;;6216937;23;20055;-86
2023/09/02 06:58:25;;;;;;;14.88;7.13;;;;;;;;;;6215277;23;20365;-86
2023/09/02 07:00:51;;;;;;;10.45;6.78;;;;;;;;;;6216889;23;20019;-86
2023/09/02 07:03:17;;;;;;;11.52;7.38;;;;;;;;;;6214501;23;20027;-86
2023/09/02 07:05:43;;;;;;;8.18;6.45;;;;;;;;;;6215830;23;20036;-86
2023/09/02 07:08:09;;;;;;;9.15;7.13;;;;;;;;;;6189901;23;20013;-86
2023/09/02 07:10:35;;;;;;;8.75;6.38;;;;;;;;;;6216571;23;20020;-86
2023/09/02 07:13:02;;;;;;;10.10;6.90;;;;;;;;;;6214328;23;20453;-86
2023/09/02 07:15:28;;;;;;;9.10;6.50;;;;;;;;;;6189706;23;20044;-86
2023/09/02 07:17:54;;;;;;;9.70;6.88;;;;;;;;;;6215037;23;20021;-85
2023/09/02 07:20:20;;;;;;;8.88;6.50;;;;;;;;;;6191268;23;20104;-86
2023/09/02 07:22:47;;;;;;;8.90;6.65;;;;;;;;;;6214225;23;20356;-85
2023/09/02 07:25:13;;;;;;;9.07;6.43;;;;;;;;;;6189772;23;20016;-85
2023/09/02 07:27:39;;;;;;;7.45;6.10;;;;;;;;;;6190238;23;20024;-87
2023/09/02 07:30:05;;;;;;;8.88;5.68;;;;;;;;;;6216106;23;20360;-85
2023/09/02 07:32:31;;;;;;;6.50;5.80;;;;;;;;;;6216633;23;20464;-85
2023/09/02 07:34:57;;;;;;;9.30;5.85;;;;;;;;;;6215576;23;20031;-86
2023/09/02 07:37:23;;;;;;;8.45;6.13;;;;;;;;;;6189882;23;20017;-85
2023/09/02 07:39:50;;;;;;;10.20;6.28;;;;;;;;;;6189426;23;20024;-85
2023/09/02 07:42:16;;;;;;;9.18;6.30;;;;;;;;;;6217986;23;20337;-85
2023/09/02 07:44:42;;;;;;;8.15;5.85;;;;;;;;;;6198281;23;20398;-86
2023/09/02 07:47:08;;;;;;;5.65;4.75;;;;;;;;;;6184153;23;20016;-85
2023/09/02 07:49:34;;;;;;;8.15;5.10;;;;;;;;;;6217256;23;20079;-85
2023/09/02 07:52:00;;;;;;;8.10;5.65;;;;;;;;;;6217073;23;20088;-86
2023/09/02 07:54:26;;;;;;;5.28;4.40;;;;;;;;;;6215192;23;20020;-86
2023/09/02 07:56:52;;;;;;;7.00;4.50;;;;;;;;;;6216799;23;20009;-86
2023/09/02 07:59:18;;;;;;;5.10;3.97;;;;;;;;;;6216829;23;20028;-85
2023/09/02 08:01:44;;;;;;;6.97;4.97;;;;;;;;;;6214939;23;20419;-85
2023/09/02 08:04:14;;;;;;;9.05;5.22;;;;;;;;;;6216255;23;20016;-85
2023/09/02 08:06:42;;;;;;;4.80;4.05;;;;;;;;;;6216340;23;20096;-86
2023/09/02 08:09:08;;;;;;;7.03;5.05;;;;;;;;;;6220875;23;20050;-85
2023/09/02 08:11:34;;;;;;;5.85;4.78;;;;;;;;;;6222012;23;20056;-83
2023/09/02 08:14:00;;;;;;;6.28;4.72;;;;;;;;;;6218351;23;20016;-83
2023/09/02 08:16:26;;;;;;;7.95;4.68;;;;;;;;;;6216792;23;20059;-84
2023/09/02 08:18:52;;;;;;;6.30;3.53;;;;;;;;;;6214791;23;20348;-86
2023/09/02 08:21:18;;;;;;;5.03;3.30;;;;;;;;;;6189840;23;20071;-86
2023/09/02 08:23:44;;;;;;;3.95;2.90;;;;;;;;;;6190012;23;20071;-86
2023/09/02 08:26:14;;;;;;;5.05;3.13;;;;;;;;;;6214712;23;20340;-85
2023/09/02 08:28:40;;;;;;;5.90;3.50;;;;;;;;;;6214644;23;20020;-86
2023/09/02 08:31:09;;;;;;;5.07;3.03;;;;;;;;;;6189678;23;20464;-86
2023/09/02 08:33:36;;;;;;;3.30;2.90;;;;;;;;;;6214492;23;20071;-86
2023/09/02 08:36:02;;;;;;;4.80;2.40;;;;;;;;;;6214319;23;20019;-87
2023/09/02 08:38:28;;;;;;;4.30;2.55;;;;;;;;;;6214218;23;20452;-86
2023/09/02 08:40:54;;;;;;;5.05;3.20;;;;;;;;;;6214237;23;20020;-86
2023/09/02 08:43:21;;;;;;;3.00;2.20;;;;;;;;;;6214826;23;20067;-86
2023/09/02 08:45:50;;;;;;;4.30;2.33;;;;;;;;;;6215052;23;20126;-86
2023/09/02 08:48:23;;;;;;;4.35;2.72;;;;;;;;;;6216098;23;20016;-86
2023/09/02 08:50:50;;;;;;;3.08;2.35;;;;;;;;;;6189696;23;20017;-86
2023/09/02 08:53:16;;;;;;;5.75;2.85;;;;;;;;;;6188789;23;20035;-86
2023/09/02 08:55:43;;;;;;;4.20;3.35;;;;;;;;;;6189145;23;20397;-86
2023/09/02 08:58:10;;;;;;;3.35;2.80;;;;;;;;;;6216230;23;20023;-87
2023/09/02 09:00:36;;;;;;;3.72;2.85;;;;;;;;;;6187231;23;20048;-87
2023/09/02 09:03:03;;;;;;;5.10;2.90;;;;;;;;;;6214359;23;20012;-85
2023/09/02 09:05:30;;;;;;;4.40;3.00;;;;;;;;;;6189647;23;20021;-85
2023/09/02 09:07:57;;;;;;;4.90;3.40;;;;;;;;;;6188655;23;20048;-85
2023/09/02 09:10:24;;;;;;;4.88;3.20;;;;;;;;;;6213703;23;20024;-86
2023/09/02 09:12:51;;;;;;;4.13;3.33;;;;;;;;;;6213947;23;20019;-85
2023/09/02 09:15:18;;;;;;;5.85;3.40;;;;;;;;;;6216618;23;20025;-85
2023/09/02 09:17:44;;;;;;;4.97;3.50;;;;;;;;;;6191120;23;20066;-85
2023/09/02 09:20:11;;;;;;;5.88;3.60;;;;;;;;;;6214990;23;20507;-85
2023/09/02 09:22:38;;;;;;;4.00;3.40;;;;;;;;;;6215774;23;20464;-85
2023/09/02 09:25:04;;;;;;;4.50;3.15;;;;;;;;;;6216113;23;20365;-85
2023/09/02 09:27:31;;;;;;;4.18;3.05;;;;;;;;;;6216251;23;20448;-88
2023/09/02 09:29:57;;;;;;;4.45;3.10;;;;;;;;;;6189524;23;20027;-87
2023/09/02 09:32:23;;;;;;;5.22;3.30;;;;;;;;;;6213667;23;20055;-86
2023/09/02 09:34:50;;;;;;;5.20;3.67;;;;;;;;;;6214294;23;20025;-86
2023/09/02 09:37:16;;;;;;;6.05;3.45;;;;;;;;;;6213893;23;20369;-86
2023/09/02 09:39:43;;;;;;;6.30;3.92;;;;;;;;;;6188471;23;20028;-86
2023/09/02 09:42:14;;;;;;;4.90;3.70;;;;;;;;;;6215653;23;20067;-87
2023/09/02 09:44:56;;;;;;;4.35;3.53;;;;;;;;;;6215483;23;20047;-86
2023/09/02 09:47:23;;;;;;;5.22;3.05;;;;;;;;;;6217092;23;20387;-86
2023/09/02 09:49:52;;;;;;;5.97;3.22;;;;;;;;;;6211464;23;20075;-86
2023/09/02 09:52:22;;;;;;;4.45;2.78;;;;;;;;;;6215994;23;20042;-86
2023/09/02 09:54:49;;;;;;;4.53;2.90;;;;;;;;;;6191142;23;20017;-87
2023/09/02 09:57:16;;;;;;;6.25;3.10;;;;;;;;;;6190685;23;20330;-86
2023/09/02 09:59:52;;;;;;;7.35;2.75;;;;;;;;;;6189216;23;20104;-86
2023/09/02 10:02:19;;;;;;;4.05;2.25;;;;;;;;;;6213813;23;20016;-86
2023/09/02 10:04:50;;;;;;;4.55;2.38;;;;;;;;;;6190124;23;20023;-86
2023/09/02 10:07:19;;;;;;;4.25;2.30;;;;;;;;;;6216003;23;20020;-85
2023/09/02 10:09:45;;;;;;;4.40;2.30;;;;;;;;;;6215660;23;20441;-85
2023/09/02 10:12:12;;;;;;;5.25;2.30;;;;;;;;;;6214085;23;20012;-85
2023/09/02 10:14:42;;;;;;;3.15;2.08;;;;;;;;;;6213910;23;20016;-85
2023/09/02 10:17:09;;;;;;;2.45;1.80;;;;;;;;;;6215028;23;20116;-86
2023/09/02 10:19:35;;;;;;;2.95;1.95;;;;;;;;;;6213174;23;20266;-86
2023/09/02 10:22:05;;;;;;;2.75;1.70;;;;;;;;;;6188324;23;20052;-86
2023/09/02 10:24:32;;;;;;;3.75;2.33;;;;;;;;;;6215276;23;20024;-86
2023/09/02 10:27:00;;;;;;;3.67;2.03;;;;;;;;;;6213500;23;20016;-86
2023/09/02 10:29:29;;;;;;;3.05;1.83;;;;;;;;;;6214672;23;20044;-86
2023/09/02 10:32:03;;;;;;;3.05;2.00;;;;;;;;;;6214420;23;20048;-86
2023/09/02 10:34:32;;;;;;;3.38;2.15;;;;;;;;;;6215472;23;20028;-86
2023/09/02 10:37:00;;;;;;;3.40;2.20;;;;;;;;;;6214444;23;20048;-86
2023/09/02 10:39:38;;;;;;;2.88;2.30;;;;;;;;;;6214899;23;20012;-85
2023/09/02 10:42:08;;;;;;;4.28;2.10;;;;;;;;;;6188920;23;20016;-86
2023/09/02 10:44:34;;;;;;;2.85;2.17;;;;;;;;;;6188806;23;20020;-86
2023/09/02 10:47:00;;;;;;;3.63;2.33;;;;;;;;;;6188338;23;20349;-87
2023/09/02 10:49:27;;;;;;;2.50;1.70;;;;;;;;;;6189160;23;20047;-88
2023/09/02 10:51:54;;;;;;;5.03;2.40;;;;;;;;;;6188581;23;20115;-86
2023/09/02 10:54:20;;;;;;;2.95;1.90;;;;;;;;;;6213029;23;20016;-86
2023/09/02 10:56:46;;;;;;;3.42;2.22;;;;;;;;;;6215568;23;20020;-85
2023/09/02 10:59:27;;;;;;;3.45;2.13;;;;;;;;;;6190459;23;20078;-85
2023/09/02 11:01:53;;;;;;;3.85;1.98;;;;;;;;;;6216702;23;20017;-86
2023/09/02 11:04:39;;;;;;;3.53;2.22;;;;;;;;;;6218225;23;20017;-85
2023/09/02 11:07:24;;;;;;;3.38;2.10;;;;;;;;;;6201322;23;20017;-85
2023/09/02 11:09:54;;;;;;;3.05;1.95;;;;;;;;;;6216310;23;20023;-85
2023/09/02 11:12:20;;;;;;;3.97;2.00;;;;;;;;;;6216741;23;20113;-85
2023/09/02 11:35:01;;;;;;;3.53;2.10;;;;;;;;;;6187461;23;20001;-85
2023/09/02 11:37:33;;;;;;;2.90;2.30;;;;;;;;;;6156998;23;20357;-85
2023/09/02 11:40:15;;;;;;;3.42;2.20;;;;;;;;;;6159195;23;20013;-83
2023/09/02 11:42:48;;;;;;;4.68;2.22;;;;;;;;;;6160996;23;20097;-84
2023/09/02 11:45:17;;;;;;;3.10;2.30;;;;;;;;;;6159119;23;20491;-85
2023/09/02 11:47:46;;;;;;;2.97;2.00;;;;;;;;;;6158831;23;20132;-85
2023/09/02 11:50:18;;;;;;;2.05;1.85;;;;;;;;;;6215443;23;20027;-85
2023/09/02 11:53:02;;;;;;;2.00;1.73;;;;;;;;;;6191333;23;20020;-85
2023/09/02 11:55:34;;;;;;;3.78;2.10;;;;;;;;;;6202055;23;20055;-85
2023/09/02 11:58:08;;;;;;;2.08;1.60;;;;;;;;;;6196028;23;20090;-85
2023/09/02 12:00:34;;;;;;;2.17;1.80;;;;;;;;;;6190024;23;20016;-85
2023/09/02 12:03:03;;;;;;;3.10;1.90;;;;;;;;;;6215409;23;20023;-85
2023/09/02 12:05:41;;;;;;;2.65;1.75;;;;;;;;;;6215315;23;20027;-86
2023/09/02 12:08:10;;;;;;;2.58;1.77;;;;;;;;;;6189446;23;20363;-84
2023/09/02 12:10:36;;;;;;;2.63;1.80;;;;;;;;;;6189791;23;20016;-84
2023/09/02 12:13:02;;;;;;;2.58;1.80;;;;;;;;;;6190028;23;20437;-85
2023/09/02 12:15:32;;;;;;;2.40;1.70;;;;;;;;;;6216048;23;20087;-85
2023/09/02 12:17:59;;;;;;;2.80;1.75;;;;;;;;;;6189492;23;20052;-85
2023/09/02 12:20:25;;;;;;;2.40;1.75;;;;;;;;;;6215359;23;20071;-84
2023/09/02 12:22:52;;;;;;;2.47;1.70;;;;;;;;;;6214895;23;20048;-85
2023/09/02 12:25:18;;;;;;;3.22;1.83;;;;;;;;;;6189686;23;20090;-85
2023/09/02 12:27:51;;;;;;;5.13;2.05;;;;;;;;;;6189650;23;20369;-83
2023/09/02 12:30:27;;;;;;;2.65;1.88;;;;;;;;;;6215276;23;20075;-85
2023/09/02 12:32:54;;;;;;;1.90;1.70;;;;;;;;;;6189781;23;20436;-85
2023/09/02 12:35:20;;;;;;;2.97;2.00;;;;;;;;;;6189885;23;20019;-85
2023/09/02 12:37:46;;;;;;;2.67;1.92;;;;;;;;;;6189349;23;20024;-84
2023/09/02 12:40:14;;;;;;;2.40;2.00;;;;;;;;;;6184674;23;20349;-84
2023/09/02 12:42:41;;;;;;;3.33;1.90;;;;;;;;;;6214837;23;20025;-85
2023/09/02 12:45:08;;;;;;;2.47;1.77;;;;;;;;;;6189236;23;20515;-85
2023/09/02 12:47:39;;;;;;;2.00;1.80;;;;;;;;;;6189985;23;20480;-85
2023/09/02 12:50:05;;;;;;;2.42;1.60;;;;;;;;;;6189655;23;20020;-85
2023/09/02 12:52:32;;;;;;;2.05;1.77;;;;;;;;;;6214282;23;20016;-85
2023/09/02 12:55:02;;;;;;;2.25;1.85;;;;;;;;;;6213209;23;20514;-85
2023/09/02 12:57:35;;;;;;;2.33;1.70;;;;;;;;;;6215836;23;20013;-86
2023/09/02 13:00:07;;;;;;;2.42;1.70;;;;;;;;;;6188837;23;20029;-85
2023/09/02 13:02:34;;;;;;;2.20;1.73;;;;;;;;;;6189051;23;20016;-84
2023/09/02 13:05:03;;;;;;;2.25;1.60;;;;;;;;;;6214051;23;20281;-85
2023/09/02 13:07:29;;;;;;;1.98;1.63;;;;;;;;;;6214477;23;20023;-87
2023/09/02 13:09:55;;;;;;;7.45;2.60;;;;;;;;;;6219235;23;20016;-86
2023/09/02 13:12:21;;;;;;;4.60;2.30;;;;;;;;;;6214976;23;20067;-87
2023/09/02 13:14:48;;;;;;;6.03;2.55;;;;;;;;;;6190196;23;20013;-86
2023/09/02 13:17:18;;;;;;;1.92;1.70;;;;;;;;;;6215767;23;20503;-86
2023/09/02 13:19:50;;;;;;;2.78;1.83;;;;;;;;;;6188418;23;20070;-85
2023/09/02 13:22:16;;;;;;;2.88;1.63;;;;;;;;;;6188966;23;20318;-87
2023/09/02 13:24:44;;;;;;;5.50;2.63;;;;;;;;;;6213984;23;20017;-87
2023/09/02 13:27:17;;;;;;;2.92;1.90;;;;;;;;;;6214048;23;20017;-87
2023/09/02 13:29:43;;;;;;;2.85;1.75;;;;;;;;;;6188748;23;20335;-87
2023/09/02 13:35:45;;;;;;;5.00;2.25;;;;;;;;;;6214462;23;20052;-90
2023/09/02 13:38:29;;;;;;;4.38;2.28;;;;;;;;;;6217544;23;20067;-89
2023/09/02 13:41:14;;;;;;;10.32;3.17;;;;;;;;;;6199482;23;20028;-87
2023/09/02 13:43:40;;;;;;;3.40;1.88;;;;;;;;;;6162768;23;20028;-89
2023/09/02 13:46:26;;;;;;;2.17;1.80;;;;;;;;;;6163119;23;20017;-89
2023/09/02 13:49:00;;;;;;;1.98;1.50;;;;;;;;;;6163174;23;20016;-87
2023/09/02 13:54:20;;;;;;;1.88;1.55;;;;;;;;;;6213066;23;20495;-88
2023/09/02 13:56:48;;;;;;;1.98;1.50;;;;;;;;;;6163916;23;20078;-87
2023/09/02 13:59:17;;;;;;;3.22;1.73;;;;;;;;;;6187767;23;20023;-87
2023/09/02 14:01:43;;;;;;;2.72;1.60;;;;;;;;;;6175938;23;20024;-87
2023/09/02 14:04:09;;;;;;;2.83;1.90;;;;;;;;;;6205875;23;20415;-87
2023/09/02 14:06:36;;;;;;;2.20;1.77;;;;;;;;;;6215474;23;20027;-87
2023/09/02 14:09:02;;;;;;;1.95;1.60;;;;;;;;;;6220274;23;20017;-83
2023/09/02 14:11:31;;;;;;;2.13;1.60;;;;;;;;;;6195770;23;20025;-83
2023/09/02 14:14:00;;;;;;;3.85;1.83;;;;;;;;;;6218818;23;20020;-83
2023/09/02 14:16:27;;;;;;;3.20;2.05;;;;;;;;;;6190925;23;20016;-84
2023/09/02 14:18:53;;;;;;;1.75;1.60;;;;;;;;;;6214346;23;20086;-83
2023/09/02 14:21:20;;;;;;;2.42;1.80;;;;;;;;;;6214750;23;20067;-84
2023/09/02 14:23:46;;;;;;;1.70;1.60;;;;;;;;;;6215615;23;20012;-84
2023/09/02 14:26:12;;;;;;;2.47;1.75;;;;;;;;;;6214520;23;20028;-84
2023/09/02 14:28:38;;;;;;;2.22;1.70;;;;;;;;;;6215089;23;20024;-84
2023/09/02 14:31:05;;;;;;;2.03;1.63;;;;;;;;;;6217352;23;20017;-84
2023/09/02 14:33:31;;;;;;;2.70;1.80;;;;;;;;;;6214121;23;20020;-84
2023/09/02 14:35:57;;;;;;;2.05;1.70;;;;;;;;;;6215602;23;20020;-84
2023/09/02 14:38:23;;;;;;;2.25;1.70;;;;;;;;;;6216470;23;20016;-84
2023/09/02 14:40:49;;;;;;;2.63;1.80;;;;;;;;;;6215971;23;20012;-84
2023/09/02 14:43:15;;;;;;;2.33;1.73;;;;;;;;;;6215885;23;20021;-84
2023/09/02 14:45:41;;;;;;;4.32;2.00;;;;;;;;;;6190453;23;20059;-84
2023/09/02 14:48:07;;;;;;;2.78;1.88;;;;;;;;;;6218045;23;20043;-83
2023/09/02 14:50:34;;;;;;;2.28;1.95;;;;;;;;;;6219626;23;20013;-83
2023/09/02 14:53:00;;;;;;;3.20;2.20;;;;;;;;;;6216143;23;20021;-83
2023/09/02 14:55:27;;;;;;;3.28;1.92;;;;;;;;;;6190396;23;20416;-83
2023/09/02 14:57:53;;;;;;;2.10;1.90;;;;;;;;;;6191554;23;20016;-83
2023/09/02 15:00:19;;;;;;;3.55;2.50;;;;;;;;;;6192785;23;20380;-83
2023/09/02 15:02:46;;;;;;;3.55;2.33;;;;;;;;;;6217985;23;20017;-82
2023/09/02 15:05:14;;;;;;;3.15;2.00;;;;;;;;;;6218007;23;20016;-82
2023/09/02 15:07:41;;;;;;;3.15;1.80;;;;;;;;;;6193202;23;20060;-83
2023/09/02 15:10:08;;;;;;;2.63;1.98;;;;;;;;;;6191961;23;20017;-83
2023/09/02 15:12:34;;;;;;;2.08;1.80;;;;;;;;;;6193283;23;20017;-83